Airfield :
LOGIN :

Register | Disclaimer

   EN    FR    IT 

 










Legend :    VFR   Marginal VFR   IFR   Intensive IFR   Very Intensive IFR
Visi :
Ceiling :
>= 8 km
>= 3000ft
5 to 8 km
1000 to 3000 ft
1500m to 5 km
500 to 1000 ft
800 to 1500m
200 to 500 ft
< 800m
< 200 ft
Symbols :   Thunderstorms  Fog  Heavy snow  Heavy precipitations  Wind > 20 kt
SIGMETs :     Misc.  Thunderstorms  Icing  Turbulence  Mountain Waves  Volcanic Ashes







- Airport Elevation : 461 ft
- IATA code : WIE


ETOU - Wiesbaden Army

CURRENT METAR :
  • 170656Z AUTO 00000KT 9999 SCT220 19/17 A3008 RMK AO2 SLP184 T01900170

EXPIRED METARs :
  • 170556Z AUTO 00000KT 9999 FEW240 17/16 A3007 RMK AO2 SLP181 T01740162 10184 20157 50001
  • 170456Z AUTO 00000KT 9999 FEW042 17/16 A3008 RMK AO2 SLP184 T01650155

TAF TAF ETOU
Valid from the 17 at 03:00 until the 18 at 09:00 UTC


170300Z 1703/1809 VRB06KT 9999 SKC QNH3007INS
TEMPO 1704/1707 8000 BR
BECMG 1707/1708 18006KT 9999 SCT030 QNH3007INS
BECMG 1718/1719 25009KT 9999 BKN050 OVC070 QNH3003INS
BECMG 1723/1724 19006KT 9999 SCT040 OVC060 QNH3002INS
BECMG 1805/1806 20006KT 9999 BKN040 QNH2999INS TX27/1715Z TN15/1704Z
No reported NOTAMs for that airfield.



MET'MAP, your aeronautical weather chart ! - Copyright ORBIFLY December 2007 - Disclaimer

ORBIFLY MET'MAP TEAM :

Programming & Development : Alexandra Zaïnal
Concept & Development : Baudouin d'Aumeries
Co-Development & Prog : Marc-Olivier Méhu
Technical & hardware support : Manuel Goepfert

Contact : metmap@orbifly.com




SOURCES & CREDITS :

   NOAA